createdAt,value
2019-03-28T00:02:02.332Z,20.90
2019-03-28T00:04:31.356Z,25.27
2019-03-28T00:07:00.366Z,17.60
2019-03-28T00:09:29.357Z,16.97
2019-03-28T00:11:58.374Z,29.10
2019-03-28T00:14:27.383Z,17.20
2019-03-28T00:16:56.390Z,26.97
2019-03-28T00:19:25.391Z,29.90
2019-03-28T00:21:55.469Z,26.70
2019-03-28T00:24:34.398Z,23.27
2019-03-28T00:27:03.423Z,16.03
2019-03-28T00:29:32.415Z,23.27
2019-03-28T00:32:01.426Z,18.57
2019-03-28T00:34:30.405Z,27.50
2019-03-28T00:36:59.415Z,23.47
2019-03-28T00:39:28.673Z,22.73
2019-03-28T00:41:58.022Z,18.90
2019-03-28T00:44:27.039Z,22.80
2019-03-28T00:46:56.108Z,27.60
2019-03-28T00:49:25.124Z,20.20
2019-03-28T00:51:54.224Z,25.93
2019-03-28T00:54:23.241Z,26.93
2019-03-28T00:56:52.321Z,17.37
2019-03-28T00:59:21.338Z,24.57
2019-03-28T01:01:50.368Z,24.47
2019-03-28T01:04:19.451Z,21.63
2019-03-28T01:06:48.455Z,17.33
2019-03-28T01:09:17.755Z,27.53
2019-03-28T01:11:46.747Z,27.27
2019-03-28T01:14:15.762Z,18.13
2019-03-28T01:16:44.845Z,20.03
2019-03-28T01:19:14.312Z,23.27
2019-03-28T01:21:43.315Z,21.77
2019-03-28T01:24:12.317Z,21.30
2019-03-28T01:26:41.322Z,16.80
2019-03-28T01:29:10.317Z,17.63
2019-03-28T01:31:39.605Z,13.90
2019-03-28T01:34:08.610Z,18.20
2019-03-28T01:36:38.240Z,14.97
2019-03-28T01:39:07.564Z,14.90
2019-03-28T01:41:36.653Z,22.73
2019-03-28T01:44:05.642Z,14.87
2019-03-28T01:46:34.646Z,18.33
2019-03-28T01:49:03.847Z,16.90
2019-03-28T01:51:32.814Z,17.47
2019-03-28T01:54:01.826Z,20.00
2019-03-28T01:56:30.822Z,20.83
2019-03-28T01:58:59.806Z,21.77
2019-03-28T02:01:28.816Z,21.50
2019-03-28T02:03:57.828Z,21.37
2019-03-28T02:06:26.846Z,18.37
2019-03-28T02:08:55.850Z,20.97
2019-03-28T02:11:24.840Z,20.73
2019-03-28T02:13:53.852Z,22.97
2019-03-28T02:16:22.873Z,17.33
2019-03-28T02:18:51.886Z,14.93
2019-03-28T02:21:20.960Z,17.40
2019-03-28T02:23:50.048Z,22.23
2019-03-28T02:26:19.136Z,25.50
2019-03-28T02:28:48.154Z,21.37
2019-03-28T02:31:17.168Z,23.73
2019-03-28T02:33:46.261Z,19.63
2019-03-28T02:36:15.241Z,22.07
2019-03-28T02:38:44.230Z,21.70
2019-03-28T02:41:13.297Z,26.30
2019-03-28T02:43:42.308Z,22.00
2019-03-28T02:46:11.390Z,17.07
2019-03-28T02:48:40.475Z,21.27
2019-03-28T02:51:09.510Z,21.40
2019-03-28T02:53:39.563Z,20.93
2019-03-28T02:56:08.658Z,19.70
2019-03-28T02:58:37.670Z,23.70
2019-03-28T03:01:06.668Z,25.40
2019-03-28T03:03:35.823Z,21.53
2019-03-28T03:06:04.842Z,24.90
2019-03-28T03:08:33.926Z,22.03
2019-03-28T03:11:02.917Z,27.20
2019-03-28T03:13:31.996Z,27.77
2019-03-28T03:16:00.991Z,27.70
2019-03-28T03:18:30.079Z,33.17
2019-03-28T03:20:59.072Z,17.33
2019-03-28T03:23:28.141Z,25.10
2019-03-28T03:25:57.146Z,21.47
2019-03-28T03:28:26.219Z,23.47
2019-03-28T03:30:55.201Z,23.07
2019-03-28T03:33:24.337Z,22.17
2019-03-28T03:35:53.346Z,20.60
2019-03-28T03:38:22.403Z,20.93
2019-03-28T03:40:51.415Z,26.83
2019-03-28T03:43:20.519Z,24.70
2019-03-28T03:45:49.508Z,21.07
2019-03-28T03:48:18.531Z,33.63
2019-03-28T03:50:48.676Z,24.00
2019-03-28T03:53:17.742Z,22.97
2019-03-28T03:55:46.771Z,20.87
2019-03-28T03:58:17.014Z,22.90
2019-03-28T04:00:46.582Z,28.93
2019-03-28T04:03:15.603Z,27.00
2019-03-28T04:05:44.633Z,25.07
2019-03-28T04:08:13.635Z,26.27
2019-03-28T04:10:42.656Z,26.33
2019-03-28T04:13:12.115Z,24.30
2019-03-28T04:15:41.116Z,29.37
2019-03-28T04:18:10.110Z,32.13
2019-03-28T04:20:39.154Z,23.17
2019-03-28T04:23:08.147Z,22.87
2019-03-28T04:25:37.362Z,35.27
2019-03-28T04:28:06.340Z,20.40
2019-03-28T04:30:35.345Z,33.00
2019-03-28T04:33:04.730Z,35.10
2019-03-28T04:35:33.755Z,23.93
2019-03-28T04:38:02.748Z,31.10
2019-03-28T04:40:31.846Z,28.37
2019-03-28T04:43:01.476Z,24.87
2019-03-28T04:45:30.566Z,21.20
2019-03-28T04:47:59.554Z,36.97
2019-03-28T04:50:28.569Z,36.40
2019-03-28T04:52:57.597Z,27.57
2019-03-28T04:55:26.580Z,34.37
2019-03-28T04:57:55.662Z,36.03
2019-03-28T05:00:24.668Z,33.37
2019-03-28T05:02:53.662Z,24.93
2019-03-28T05:05:22.673Z,31.20
2019-03-28T05:07:51.704Z,35.53
2019-03-28T05:10:20.945Z,27.07
2019-03-28T05:12:49.957Z,26.63
2019-03-28T05:15:20.332Z,29.33
2019-03-28T05:17:49.674Z,41.00
2019-03-28T05:20:18.678Z,31.13
2019-03-28T05:22:48.487Z,27.10
2019-03-28T05:25:17.571Z,34.00
2019-03-28T05:27:46.587Z,31.47
2019-03-28T05:30:17.569Z,35.07
2019-03-28T05:32:46.735Z,30.67
2019-03-28T05:35:15.762Z,33.43
2019-03-28T05:37:44.794Z,31.50
2019-03-28T05:40:14.149Z,28.23
2019-03-28T05:42:43.174Z,33.43
2019-03-28T05:45:12.192Z,32.07
2019-03-28T05:47:41.201Z,33.80
2019-03-28T05:50:10.221Z,33.13
2019-03-28T05:52:39.242Z,26.83
2019-03-28T05:55:08.273Z,23.73
2019-03-28T05:57:37.337Z,31.23
2019-03-28T06:00:06.624Z,25.27
2019-03-28T06:02:35.640Z,31.77
2019-03-28T06:05:04.864Z,35.47
2019-03-28T06:07:33.880Z,35.03
2019-03-28T06:10:02.982Z,30.17
2019-03-28T06:12:32.062Z,28.37
2019-03-28T06:15:01.076Z,31.87
2019-03-28T06:17:30.078Z,32.93
2019-03-28T06:19:59.089Z,33.73
2019-03-28T06:22:28.101Z,31.07
2019-03-28T06:24:57.098Z,30.63
2019-03-28T06:27:26.085Z,29.40
2019-03-28T06:29:55.085Z,30.07
2019-03-28T06:32:24.136Z,31.70
2019-03-28T06:34:53.095Z,32.73
2019-03-28T06:37:22.162Z,26.73
2019-03-28T06:39:51.186Z,28.10
2019-03-28T06:42:20.174Z,31.23
2019-03-28T06:44:49.174Z,29.20
2019-03-28T06:47:20.956Z,34.80
2019-03-28T06:49:48.924Z,37.90
2019-03-28T06:52:17.993Z,31.40
2019-03-28T06:54:47.087Z,30.43
2019-03-28T06:57:18.842Z,29.77
2019-03-28T06:59:46.904Z,26.40
2019-03-28T07:02:15.890Z,29.53
2019-03-28T07:04:44.982Z,32.70
2019-03-28T07:07:13.988Z,28.30
2019-03-28T07:09:43.004Z,34.37
2019-03-28T07:12:12.159Z,32.33
2019-03-28T07:14:41.164Z,26.43
2019-03-28T07:17:10.245Z,28.67
2019-03-28T07:19:39.249Z,29.40
2019-03-28T07:22:08.328Z,34.67
2019-03-28T07:24:37.333Z,31.23
2019-03-28T07:27:06.751Z,24.70
2019-03-28T07:29:35.838Z,26.63
2019-03-28T07:32:04.851Z,35.93
2019-03-28T07:34:33.857Z,30.97
2019-03-28T07:37:02.986Z,38.50
2019-03-28T07:39:31.996Z,36.80
2019-03-28T07:42:01.049Z,32.10
2019-03-28T07:44:30.445Z,39.27
2019-03-28T07:46:59.441Z,26.93
2019-03-28T07:49:28.450Z,30.33
2019-03-28T07:51:57.484Z,30.87
2019-03-28T07:54:26.506Z,30.23
2019-03-28T07:56:55.512Z,36.00
2019-03-28T07:59:24.505Z,32.83
2019-03-28T08:01:53.516Z,36.73
2019-03-28T08:04:22.498Z,31.83
2019-03-28T08:06:51.928Z,30.70
2019-03-28T08:09:21.327Z,29.20
2019-03-28T08:11:50.313Z,42.77
2019-03-28T08:14:19.317Z,26.80
2019-03-28T08:16:48.341Z,26.90
2019-03-28T08:19:17.674Z,23.30
2019-03-28T08:21:46.676Z,34.57
2019-03-28T08:24:15.675Z,28.77
2019-03-28T08:26:44.809Z,28.60
2019-03-28T08:29:13.815Z,32.30
2019-03-28T08:31:44.933Z,29.90
2019-03-28T08:34:13.938Z,37.10
2019-03-28T08:36:43.131Z,38.03
2019-03-28T08:39:12.550Z,22.00
2019-03-28T08:41:41.574Z,19.30
2019-03-28T08:44:10.782Z,32.07
2019-03-28T08:46:39.943Z,32.57
2019-03-28T08:49:09.275Z,31.30
2019-03-28T08:51:38.280Z,28.03
2019-03-28T08:54:07.555Z,37.00
2019-03-28T08:56:36.585Z,27.50
2019-03-28T08:59:05.962Z,30.03
2019-03-28T09:01:34.966Z,21.47
2019-03-28T09:04:04.195Z,36.50
2019-03-28T09:06:33.230Z,24.50
2019-03-28T09:09:02.227Z,31.03
2019-03-28T09:11:31.241Z,28.33
2019-03-28T09:14:00.259Z,27.90
2019-03-28T09:16:29.260Z,21.20
2019-03-28T09:18:58.255Z,25.37
2019-03-28T09:21:27.286Z,26.70
2019-03-28T09:23:56.282Z,30.40
2019-03-28T09:26:25.284Z,18.33
2019-03-28T09:28:54.371Z,29.30
2019-03-28T09:31:23.394Z,28.47
2019-03-28T09:33:52.399Z,22.57
2019-03-28T09:36:21.398Z,31.70
2019-03-28T09:38:50.419Z,21.27
2019-03-28T09:41:19.422Z,25.33
2019-03-28T09:43:55.016Z,28.13
2019-03-28T09:46:19.514Z,27.27
2019-03-28T09:48:48.589Z,31.07
2019-03-28T09:51:17.618Z,24.63
2019-03-28T09:53:46.635Z,20.10
2019-03-28T09:56:15.657Z,21.10
2019-03-28T09:58:44.678Z,21.17
2019-03-28T10:01:13.689Z,19.73
2019-03-28T10:03:42.685Z,18.60
2019-03-28T10:06:11.689Z,17.80
2019-03-28T10:08:40.701Z,18.13
2019-03-28T10:11:10.051Z,17.47
2019-03-28T10:13:39.277Z,19.83
2019-03-28T10:16:08.276Z,21.60
2019-03-28T10:18:37.300Z,22.10
2019-03-28T10:21:06.300Z,19.93
2019-03-28T10:23:35.328Z,18.73
2019-03-28T10:26:04.351Z,18.87
2019-03-28T10:28:33.334Z,20.17
2019-03-28T10:31:15.519Z,19.70
2019-03-28T10:33:33.164Z,18.33
2019-03-28T10:36:02.189Z,19.43
2019-03-28T10:38:31.185Z,20.00
2019-03-28T10:41:00.183Z,16.43
2019-03-28T10:43:29.179Z,14.83
2019-03-28T10:45:58.168Z,15.97
2019-03-28T10:48:27.168Z,17.10
2019-03-28T10:50:56.219Z,15.77
2019-03-28T10:53:25.224Z,17.23
2019-03-28T10:55:54.220Z,11.50
2019-03-28T10:58:23.249Z,14.20
2019-03-28T11:00:54.795Z,10.77
2019-03-28T11:03:22.975Z,14.30
2019-03-28T11:05:51.993Z,9.00
2019-03-28T11:08:20.999Z,12.90
2019-03-28T11:10:50.052Z,9.77
2019-03-28T11:13:19.049Z,11.37
2019-03-28T11:15:48.092Z,9.43
2019-03-28T11:18:17.396Z,13.87
2019-03-28T11:20:46.399Z,10.47
2019-03-28T11:23:15.402Z,7.10
2019-03-28T11:25:44.410Z,12.63
2019-03-28T11:28:13.405Z,12.40
2019-03-28T11:30:42.537Z,8.33
2019-03-28T11:33:11.535Z,10.57
2019-03-28T11:35:40.526Z,11.50
2019-03-28T11:38:09.853Z,11.80
2019-03-28T11:40:41.274Z,10.87
2019-03-28T11:43:09.839Z,7.30
2019-03-28T11:45:38.938Z,12.00
2019-03-28T11:48:07.939Z,13.10
2019-03-28T11:50:36.947Z,8.00
2019-03-28T11:53:05.944Z,9.07
2019-03-28T11:55:34.956Z,8.57
2019-03-28T11:58:04.080Z,9.60
2019-03-28T12:00:33.100Z,11.17
2019-03-28T12:03:02.159Z,10.77
2019-03-28T12:05:31.145Z,12.43
2019-03-28T12:08:00.234Z,13.57
2019-03-28T12:10:29.315Z,10.53
2019-03-28T12:12:58.553Z,9.47
2019-03-28T12:15:27.584Z,16.93
2019-03-28T12:17:56.578Z,9.47
2019-03-28T12:20:25.571Z,11.67
2019-03-28T12:22:56.071Z,11.70
2019-03-28T12:25:25.365Z,11.73
2019-03-28T12:27:54.426Z,16.23
2019-03-28T12:30:24.225Z,10.43
2019-03-28T12:32:53.244Z,9.23
2019-03-28T12:35:22.265Z,8.87
2019-03-28T12:37:51.290Z,12.73
2019-03-28T12:40:20.270Z,13.63
2019-03-28T12:42:49.274Z,13.73
2019-03-28T12:45:18.279Z,8.90
2019-03-28T12:47:47.286Z,10.10
2019-03-28T12:50:16.321Z,7.80
2019-03-28T12:52:45.341Z,11.17
2019-03-28T12:55:14.952Z,14.23
2019-03-28T12:57:44.041Z,13.03
2019-03-28T13:00:13.183Z,14.83
2019-03-28T13:02:42.197Z,14.90
2019-03-28T13:05:11.271Z,14.40
2019-03-28T13:07:40.281Z,15.03
2019-03-28T13:10:09.511Z,14.23
2019-03-28T13:12:38.537Z,14.43
2019-03-28T13:15:07.604Z,13.33
2019-03-28T13:17:36.647Z,13.80
2019-03-28T13:20:06.853Z,10.87
2019-03-28T13:22:36.144Z,12.20
2019-03-28T13:25:05.776Z,12.67
2019-03-28T13:27:35.829Z,9.83
2019-03-28T13:30:06.227Z,8.40
2019-03-28T13:32:41.640Z,9.23
2019-03-28T13:35:07.494Z,9.33
2019-03-28T13:37:36.509Z,11.57
2019-03-28T13:40:05.913Z,10.77
2019-03-28T13:42:34.947Z,11.50
2019-03-28T13:45:04.246Z,11.57
2019-03-28T13:47:33.530Z,12.80
2019-03-28T13:50:02.605Z,7.57
2019-03-28T13:52:31.630Z,12.70
2019-03-28T13:55:00.653Z,9.57
2019-03-28T13:57:30.006Z,10.87
2019-03-28T13:59:59.028Z,10.67
2019-03-28T14:02:28.073Z,12.10
2019-03-28T14:04:57.085Z,10.73
2019-03-28T14:07:26.096Z,14.17
2019-03-28T14:09:55.073Z,18.90
2019-03-28T14:12:24.361Z,13.10
2019-03-28T14:14:53.377Z,14.53
2019-03-28T14:17:22.382Z,14.20
2019-03-28T14:19:51.381Z,13.77
2019-03-28T14:22:20.505Z,13.03
2019-03-28T14:24:49.525Z,13.13
2019-03-28T14:27:18.595Z,14.73
2019-03-28T14:29:47.939Z,15.77
2019-03-28T14:32:16.953Z,12.97
2019-03-28T14:34:45.981Z,12.50
2019-03-28T14:37:17.142Z,13.43
2019-03-28T14:39:49.003Z,10.07
2019-03-28T14:42:19.521Z,12.07
2019-03-28T14:44:47.184Z,17.53
2019-03-28T14:47:16.189Z,10.03
2019-03-28T14:49:45.319Z,13.67
2019-03-28T14:52:14.273Z,10.83
2019-03-28T14:54:43.260Z,13.03
2019-03-28T14:57:12.718Z,15.63
2019-03-28T14:59:41.727Z,10.07
2019-03-28T15:02:10.720Z,8.97
2019-03-28T15:04:39.730Z,12.63
2019-03-28T15:07:08.738Z,9.47
2019-03-28T15:09:37.778Z,8.20
2019-03-28T15:12:07.056Z,7.83
2019-03-28T15:14:36.069Z,8.87
2019-03-28T15:17:05.073Z,9.37
2019-03-28T15:19:34.416Z,9.33
2019-03-28T15:22:03.527Z,9.50
2019-03-28T15:24:32.485Z,10.43
2019-03-28T15:27:01.593Z,8.57
2019-03-28T15:29:30.583Z,8.93
2019-03-28T15:31:59.600Z,12.50
2019-03-28T15:34:28.578Z,9.93
2019-03-28T15:36:57.668Z,8.90
2019-03-28T15:39:26.696Z,7.00
2019-03-28T15:41:56.485Z,7.97
2019-03-28T15:44:25.479Z,8.23
2019-03-28T15:46:54.494Z,10.40
2019-03-28T15:49:23.805Z,12.17
2019-03-28T15:51:52.817Z,11.20
2019-03-28T15:54:21.946Z,11.97
2019-03-28T15:56:50.946Z,13.97
2019-03-28T15:59:19.944Z,15.87
2019-03-28T16:01:49.270Z,16.00
2019-03-28T16:04:18.273Z,13.13
2019-03-28T16:06:47.269Z,12.90
2019-03-28T16:09:18.316Z,13.77
2019-03-28T16:11:47.065Z,16.00
2019-03-28T16:14:16.417Z,13.00
2019-03-28T16:16:45.434Z,11.90
2019-03-28T16:19:14.429Z,8.57
2019-03-28T16:21:43.431Z,11.53
2019-03-28T16:24:12.457Z,9.17
2019-03-28T16:26:41.474Z,10.37
2019-03-28T16:29:10.449Z,8.27
2019-03-28T16:31:39.504Z,12.07
2019-03-28T16:34:09.413Z,13.10
2019-03-28T16:36:38.446Z,9.60
2019-03-28T16:39:07.868Z,11.30
2019-03-28T16:41:36.861Z,5.53
2019-03-28T16:44:05.994Z,7.77
2019-03-28T16:46:35.061Z,12.20
2019-03-28T16:49:04.086Z,13.03
2019-03-28T16:51:33.176Z,11.27
2019-03-28T16:54:02.154Z,12.73
2019-03-28T16:56:31.175Z,9.07
2019-03-28T16:59:00.175Z,11.90
2019-03-28T17:01:29.509Z,12.27
2019-03-28T17:03:58.519Z,9.60
2019-03-28T17:06:27.534Z,5.87
2019-03-28T17:08:56.519Z,7.47
2019-03-28T17:11:25.923Z,11.70
2019-03-28T17:13:54.911Z,11.63
2019-03-28T17:16:23.916Z,11.30
2019-03-28T17:18:52.905Z,6.73
2019-03-28T17:21:23.390Z,12.97
2019-03-28T17:23:53.801Z,14.57
2019-03-28T17:26:22.883Z,9.03
2019-03-28T17:28:51.962Z,10.27
2019-03-28T17:31:21.034Z,10.00
2019-03-28T17:33:50.022Z,6.67
2019-03-28T17:36:19.115Z,9.27
2019-03-28T17:38:48.655Z,9.80
2019-03-28T17:41:17.744Z,9.43
2019-03-28T17:43:47.117Z,6.73
2019-03-28T17:46:16.425Z,13.67
2019-03-28T17:48:45.438Z,9.87
2019-03-28T17:51:14.499Z,9.07
2019-03-28T17:53:43.518Z,11.23
2019-03-28T17:56:12.488Z,8.47
2019-03-28T17:58:41.606Z,8.90
2019-03-28T18:01:10.606Z,12.60
2019-03-28T18:03:39.605Z,10.03
2019-03-28T18:06:08.853Z,6.73
2019-03-28T18:08:38.056Z,7.30
2019-03-28T18:11:07.187Z,11.90
2019-03-28T18:13:36.178Z,13.57
2019-03-28T18:16:05.219Z,9.30
2019-03-28T18:18:34.237Z,8.63
2019-03-28T18:21:03.374Z,9.23
2019-03-28T18:23:32.395Z,10.57
2019-03-28T18:26:01.389Z,8.67
2019-03-28T18:28:31.638Z,9.93
2019-03-28T18:31:00.788Z,8.70
2019-03-28T18:33:29.813Z,11.37
2019-03-28T18:35:59.038Z,13.00
2019-03-28T18:38:30.823Z,9.83
2019-03-28T18:40:59.057Z,6.03
2019-03-28T18:43:28.093Z,13.97
2019-03-28T18:45:57.089Z,9.37
2019-03-28T18:48:31.601Z,11.97
2019-03-28T18:50:56.905Z,9.27
2019-03-28T18:53:25.964Z,9.37
2019-03-28T18:55:55.765Z,7.63
2019-03-28T18:58:25.033Z,8.20
2019-03-28T19:00:54.017Z,9.27
2019-03-28T19:03:23.298Z,13.50
2019-03-28T19:05:52.312Z,5.27
2019-03-28T19:08:21.333Z,7.53
2019-03-28T19:10:51.008Z,7.53
2019-03-28T19:13:20.076Z,10.10
2019-03-28T19:15:49.930Z,10.83
2019-03-28T19:18:19.186Z,10.53
2019-03-28T19:20:48.293Z,12.03
2019-03-28T19:23:17.280Z,9.80
2019-03-28T19:25:47.073Z,12.73
2019-03-28T19:28:27.945Z,10.23
2019-03-28T19:30:47.128Z,11.97
2019-03-28T19:33:16.221Z,9.87
2019-03-28T19:35:45.223Z,9.73
2019-03-28T19:38:14.327Z,13.30
2019-03-28T19:40:43.323Z,8.03
2019-03-28T19:43:20.274Z,11.33
2019-03-28T19:45:43.182Z,10.47
2019-03-28T19:48:12.300Z,6.73
2019-03-28T19:50:41.944Z,6.77
2019-03-28T19:53:11.908Z,10.37
2019-03-28T19:55:41.199Z,11.50
2019-03-28T19:58:13.353Z,8.57
2019-03-28T20:00:40.935Z,8.57
2019-03-28T20:03:09.957Z,9.40
2019-03-28T20:05:47.468Z,14.13
2019-03-28T20:08:15.860Z,12.20
2019-03-28T20:10:40.590Z,11.37
2019-03-28T20:13:09.632Z,10.77
2019-03-28T20:15:38.607Z,13.10
2019-03-28T20:18:07.626Z,12.97
2019-03-28T20:20:36.613Z,10.87
2019-03-28T20:23:05.611Z,11.50
2019-03-28T20:25:34.637Z,10.73
2019-03-28T20:28:03.653Z,15.13
2019-03-28T20:30:32.667Z,11.70
2019-03-28T20:33:01.694Z,10.00
2019-03-28T20:35:30.734Z,13.40
2019-03-28T20:37:59.729Z,12.17
2019-03-28T20:40:28.754Z,13.00
2019-03-28T20:42:57.750Z,10.20
2019-03-28T20:45:26.780Z,11.40
2019-03-28T20:47:55.785Z,10.43
2019-03-28T20:50:24.779Z,20.43
2019-03-28T20:52:54.125Z,11.47
2019-03-28T20:55:23.110Z,15.13
2019-03-28T20:57:52.126Z,10.87
2019-03-28T21:00:34.392Z,9.93
2019-03-28T21:03:03.408Z,11.50
2019-03-28T21:05:32.422Z,14.57
2019-03-28T21:08:01.636Z,9.90
2019-03-28T21:10:33.459Z,12.43
2019-03-28T21:13:01.597Z,8.47
2019-03-28T21:15:30.771Z,14.80
2019-03-28T21:18:00.905Z,11.53
2019-03-28T21:20:30.193Z,13.13
2019-03-28T21:22:59.393Z,13.40
2019-03-28T21:25:29.808Z,19.03
2019-03-28T21:27:59.293Z,13.00
2019-03-28T21:30:28.377Z,12.43
2019-03-28T21:32:58.167Z,10.00
2019-03-28T21:35:27.182Z,12.17
2019-03-28T21:37:56.165Z,12.03
2019-03-28T21:40:25.169Z,11.10
2019-03-28T21:42:54.262Z,11.53
2019-03-28T21:45:23.262Z,11.60
2019-03-28T21:47:52.561Z,12.10
2019-03-28T21:50:21.666Z,12.70
2019-03-28T21:52:50.763Z,13.27
2019-03-28T21:55:19.806Z,12.20
2019-03-28T21:57:48.806Z,11.13
2019-03-28T22:00:17.812Z,12.97
2019-03-28T22:02:46.823Z,10.30
2019-03-28T22:05:15.900Z,8.60
2019-03-28T22:07:44.943Z,20.50
2019-03-28T22:10:13.897Z,11.57
2019-03-28T22:12:42.898Z,18.47
2019-03-28T22:15:12.221Z,12.87
2019-03-28T22:17:42.080Z,18.60
2019-03-28T22:20:11.249Z,20.07
2019-03-28T22:22:43.406Z,16.03
2019-03-28T22:25:11.933Z,15.77
2019-03-28T22:27:40.937Z,13.30
2019-03-28T22:30:10.754Z,17.57
2019-03-28T22:32:40.103Z,20.10
2019-03-28T22:35:09.200Z,15.27
2019-03-28T22:37:38.309Z,17.43
2019-03-28T22:40:10.323Z,15.80
2019-03-28T22:42:38.836Z,15.70
2019-03-28T22:45:08.699Z,16.77
2019-03-28T22:47:37.696Z,13.07
2019-03-28T22:50:07.055Z,19.97
2019-03-28T22:52:36.049Z,14.70
2019-03-28T22:55:05.703Z,16.57
2019-03-28T22:57:34.778Z,17.30
2019-03-28T23:00:04.881Z,15.40
2019-03-28T23:02:33.852Z,14.70
2019-03-28T23:05:02.849Z,15.07
2019-03-28T23:07:31.848Z,17.07
2019-03-28T23:10:00.911Z,16.23
2019-03-28T23:12:29.923Z,12.63
2019-03-28T23:14:59.377Z,12.10
2019-03-28T23:17:28.400Z,21.53
2019-03-28T23:19:57.916Z,19.47
2019-03-28T23:22:26.885Z,20.87
2019-03-28T23:24:56.038Z,13.93
2019-03-28T23:27:25.415Z,17.53
2019-03-28T23:29:54.510Z,15.40
2019-03-28T23:32:23.584Z,14.93
2019-03-28T23:34:52.836Z,10.63
2019-03-28T23:37:24.839Z,15.87
2019-03-28T23:39:52.729Z,14.73
2019-03-28T23:42:21.831Z,14.90
2019-03-28T23:44:50.811Z,15.33
2019-03-28T23:47:19.885Z,18.50
2019-03-28T23:49:48.881Z,16.80
2019-03-28T23:52:17.963Z,18.20
2019-03-28T23:54:46.994Z,18.37
2019-03-28T23:57:15.984Z,19.73
2019-03-28T23:59:44.989Z,13.37
